createdAt,value
2023-04-17T00:00:01.694Z,16.80
2023-04-17T00:01:23.775Z,15.63
2023-04-17T00:02:46.517Z,16.07
2023-04-17T00:04:13.061Z,15.23
2023-04-17T00:05:35.319Z,15.10
2023-04-17T00:06:59.358Z,14.17
2023-04-17T00:08:21.469Z,15.50
2023-04-17T00:09:43.450Z,14.60
2023-04-17T00:11:08.657Z,14.00
2023-04-17T00:12:31.211Z,15.07
2023-04-17T00:13:53.269Z,14.50
2023-04-17T00:15:15.312Z,14.87
2023-04-17T00:16:37.817Z,15.07
2023-04-17T00:18:00.110Z,15.00
2023-04-17T00:19:22.387Z,13.30
2023-04-17T00:20:44.512Z,14.43
2023-04-17T00:22:06.651Z,14.00
2023-04-17T00:23:28.694Z,13.90
2023-04-17T00:24:50.816Z,15.20
2023-04-17T00:26:13.050Z,14.87
2023-04-17T00:27:35.215Z,15.10
2023-04-17T00:28:57.298Z,14.07
2023-04-17T00:30:19.460Z,14.70
2023-04-17T00:31:41.574Z,13.83
2023-04-17T00:33:03.686Z,14.00
2023-04-17T00:34:25.799Z,14.77
2023-04-17T00:35:47.977Z,13.87
2023-04-17T00:37:10.041Z,14.43
2023-04-17T00:38:32.111Z,14.67
2023-04-17T00:39:54.132Z,14.47
2023-04-17T00:41:16.334Z,14.43
2023-04-17T00:42:38.346Z,14.90
2023-04-17T00:44:00.404Z,14.97
2023-04-17T00:45:22.567Z,15.93
2023-04-17T00:46:44.913Z,14.77
2023-04-17T00:48:08.257Z,15.47
2023-04-17T00:49:30.645Z,14.40
2023-04-17T00:50:53.744Z,14.20
2023-04-17T00:52:24.636Z,14.33
2023-04-17T00:53:47.397Z,14.07
2023-04-17T00:55:10.259Z,14.93
2023-04-17T00:56:32.472Z,14.70
2023-04-17T00:57:56.212Z,15.40
2023-04-17T00:59:18.641Z,14.00
2023-04-17T01:00:40.732Z,13.83
2023-04-17T01:02:02.941Z,14.77
2023-04-17T01:03:25.174Z,13.40
2023-04-17T01:04:47.361Z,14.03
2023-04-17T01:06:09.895Z,15.13
2023-04-17T01:07:32.054Z,15.33
2023-04-17T01:08:54.775Z,15.27
2023-04-17T01:10:16.889Z,14.40
2023-04-17T01:11:39.485Z,14.70
2023-04-17T01:13:03.425Z,16.27
2023-04-17T01:14:25.680Z,15.13
2023-04-17T01:15:47.669Z,15.07
2023-04-17T01:17:10.361Z,14.17
2023-04-17T01:18:32.532Z,15.67
2023-04-17T01:19:55.505Z,13.60
2023-04-17T01:21:17.890Z,14.30
2023-04-17T01:22:39.921Z,14.57
2023-04-17T01:24:05.132Z,13.77
2023-04-17T01:25:28.410Z,14.73
2023-04-17T01:26:50.484Z,13.37
2023-04-17T01:28:12.523Z,14.83
2023-04-17T01:29:35.294Z,14.07
2023-04-17T01:30:57.512Z,14.67
2023-04-17T01:32:19.659Z,14.27
2023-04-17T01:33:41.832Z,14.40
2023-04-17T01:35:04.265Z,14.00
2023-04-17T01:36:27.655Z,14.10
2023-04-17T01:37:49.918Z,13.90
2023-04-17T01:39:12.326Z,13.30
2023-04-17T01:40:34.568Z,14.73
2023-04-17T01:41:56.701Z,13.53
2023-04-17T01:43:18.794Z,14.37
2023-04-17T01:44:41.007Z,14.60
2023-04-17T01:46:03.138Z,14.83
2023-04-17T01:47:25.253Z,13.43
2023-04-17T01:48:47.445Z,13.60
2023-04-17T01:50:09.926Z,14.87
2023-04-17T01:51:31.968Z,13.73
2023-04-17T01:52:53.977Z,13.60
2023-04-17T01:54:16.079Z,13.87
2023-04-17T01:55:38.072Z,14.80
2023-04-17T01:57:00.135Z,13.70
2023-04-17T01:58:22.245Z,15.07
2023-04-17T01:59:44.675Z,13.60
2023-04-17T02:01:06.829Z,13.13
2023-04-17T02:02:28.952Z,14.00
2023-04-17T02:03:51.287Z,13.80
2023-04-17T02:05:13.479Z,14.60
2023-04-17T02:06:35.951Z,14.90
2023-04-17T02:07:58.017Z,14.30
2023-04-17T02:09:20.162Z,13.83
2023-04-17T02:10:43.057Z,14.47
2023-04-17T02:12:05.773Z,14.20
2023-04-17T02:13:27.919Z,13.80
2023-04-17T02:14:50.113Z,14.53
2023-04-17T02:16:12.702Z,14.17
2023-04-17T02:17:34.979Z,13.40
2023-04-17T02:18:57.085Z,13.80
2023-04-17T02:20:19.268Z,14.07
2023-04-17T02:21:42.176Z,14.80
2023-04-17T02:23:05.968Z,14.30
2023-04-17T02:24:28.182Z,15.60
2023-04-17T02:25:50.227Z,15.00
2023-04-17T02:27:12.269Z,14.03
2023-04-17T02:28:34.428Z,15.53
2023-04-17T02:29:56.549Z,15.17
2023-04-17T02:31:18.701Z,15.90
2023-04-17T02:32:40.962Z,14.90
2023-04-17T02:34:03.343Z,13.80
2023-04-17T02:35:29.209Z,15.37
2023-04-17T02:36:52.468Z,16.07
2023-04-17T02:38:14.655Z,15.00
2023-04-17T02:39:36.951Z,15.00
2023-04-17T02:40:59.740Z,16.80
2023-04-17T02:42:21.824Z,15.07
2023-04-17T02:43:44.010Z,15.20
2023-04-17T02:45:06.796Z,15.83
2023-04-17T02:46:28.962Z,15.50
2023-04-17T02:47:51.202Z,15.70
2023-04-17T02:49:13.388Z,15.40
2023-04-17T02:50:35.667Z,16.60
2023-04-17T02:51:57.924Z,15.27
2023-04-17T02:53:20.477Z,17.10
2023-04-17T02:54:42.582Z,16.50
2023-04-17T02:56:04.930Z,16.87
2023-04-17T02:57:27.125Z,15.40
2023-04-17T02:58:49.231Z,16.57
2023-04-17T03:00:14.781Z,16.43
2023-04-17T03:01:38.600Z,16.27
2023-04-17T03:03:03.171Z,16.53
2023-04-17T03:04:27.998Z,15.97
2023-04-17T03:05:50.167Z,16.20
2023-04-17T03:07:13.604Z,16.87
2023-04-17T03:08:38.657Z,17.53
2023-04-17T03:10:00.976Z,17.00
2023-04-17T03:11:23.152Z,16.40
2023-04-17T03:12:45.471Z,17.00
2023-04-17T03:14:07.605Z,18.03
2023-04-17T03:15:29.725Z,17.00
2023-04-17T03:16:51.851Z,17.30
2023-04-17T03:18:13.977Z,16.87
2023-04-17T03:19:36.057Z,17.87
2023-04-17T03:20:58.518Z,16.93
2023-04-17T03:22:20.677Z,17.47
2023-04-17T03:23:43.723Z,17.87
2023-04-17T03:25:06.334Z,17.77
2023-04-17T03:26:28.421Z,17.70
2023-04-17T03:27:50.682Z,19.43
2023-04-17T03:29:13.204Z,16.97
2023-04-17T03:30:35.583Z,17.50
2023-04-17T03:31:57.681Z,18.90
2023-04-17T03:33:19.738Z,19.10
2023-04-17T03:34:41.789Z,18.07
2023-04-17T03:36:04.143Z,18.30
2023-04-17T03:37:26.165Z,20.07
2023-04-17T03:38:48.207Z,18.60
2023-04-17T03:40:10.558Z,19.20
2023-04-17T03:41:32.741Z,18.83
2023-04-17T03:42:54.779Z,17.63
2023-04-17T03:44:17.395Z,19.67
2023-04-17T03:45:39.476Z,18.43
2023-04-17T03:47:01.620Z,18.43
2023-04-17T03:48:23.738Z,18.00
2023-04-17T03:49:45.791Z,20.60
2023-04-17T03:51:07.847Z,19.33
2023-04-17T03:52:29.887Z,17.93
2023-04-17T03:53:51.962Z,19.53
2023-04-17T03:55:14.050Z,20.80
2023-04-17T03:56:36.213Z,17.93
2023-04-17T03:57:58.291Z,18.10
2023-04-17T03:59:20.442Z,18.77
2023-04-17T04:00:42.564Z,18.00
2023-04-17T04:02:04.790Z,17.30
2023-04-17T04:03:27.290Z,16.90
2023-04-17T04:04:50.486Z,18.80
2023-04-17T04:06:12.858Z,16.70
2023-04-17T04:07:35.005Z,17.97
2023-04-17T04:08:57.284Z,18.20
2023-04-17T04:10:19.341Z,18.17
2023-04-17T04:11:41.413Z,17.43
2023-04-17T04:13:03.602Z,17.00
2023-04-17T04:14:25.686Z,16.17
2023-04-17T04:15:47.817Z,17.47
2023-04-17T04:17:09.890Z,18.53
2023-04-17T04:18:31.965Z,18.10
2023-04-17T04:19:54.003Z,16.90
2023-04-17T04:21:16.084Z,17.73
2023-04-17T04:22:38.126Z,17.80
2023-04-17T04:24:00.246Z,16.50
2023-04-17T04:25:22.292Z,18.70
2023-04-17T04:26:47.276Z,18.00
2023-04-17T04:28:10.401Z,18.53
2023-04-17T04:29:33.058Z,17.80
2023-04-17T04:30:55.321Z,16.83
2023-04-17T04:32:17.399Z,16.93
2023-04-17T04:33:39.470Z,18.20
2023-04-17T04:35:02.113Z,16.60
2023-04-17T04:36:25.083Z,16.07
2023-04-17T04:37:47.134Z,15.33
2023-04-17T04:39:09.927Z,15.40
2023-04-17T04:40:38.161Z,15.47
2023-04-17T04:42:05.865Z,14.97
2023-04-17T04:43:29.131Z,14.20
2023-04-17T04:44:51.308Z,13.30
2023-04-17T04:46:13.484Z,14.70
2023-04-17T04:47:36.450Z,14.97
2023-04-17T04:48:58.621Z,15.27
2023-04-17T04:50:21.309Z,14.53
2023-04-17T04:51:43.577Z,14.07
2023-04-17T04:53:05.741Z,13.60
2023-04-17T04:54:27.893Z,13.23
2023-04-17T04:55:50.104Z,13.77
2023-04-17T04:57:12.187Z,13.50
2023-04-17T04:58:34.288Z,14.40
2023-04-17T04:59:56.347Z,13.43
2023-04-17T05:01:18.707Z,14.87
2023-04-17T05:02:41.092Z,14.20
2023-04-17T05:04:03.838Z,13.80
2023-04-17T05:05:26.065Z,14.37
2023-04-17T05:06:48.102Z,14.03
2023-04-17T05:08:10.214Z,14.33
2023-04-17T05:09:33.281Z,13.80
2023-04-17T05:10:55.606Z,13.70
2023-04-17T05:12:17.751Z,14.33
2023-04-17T05:13:39.809Z,14.50
2023-04-17T05:15:02.021Z,13.77
2023-04-17T05:16:24.174Z,14.10
2023-04-17T05:17:46.655Z,13.53
2023-04-17T05:19:08.934Z,13.73
2023-04-17T05:20:33.159Z,15.23
2023-04-17T05:21:55.474Z,13.60
2023-04-17T05:23:21.451Z,14.53
2023-04-17T05:24:43.574Z,14.10
2023-04-17T05:26:06.011Z,14.30
2023-04-17T05:27:28.166Z,13.90
2023-04-17T05:28:50.395Z,14.70
2023-04-17T05:30:13.151Z,14.80
2023-04-17T05:31:35.412Z,15.23
2023-04-17T05:32:58.648Z,13.60
2023-04-17T05:34:20.904Z,14.30
2023-04-17T05:35:42.961Z,14.20
2023-04-17T05:37:05.527Z,13.70
2023-04-17T05:38:27.682Z,14.07
2023-04-17T05:39:49.950Z,14.00
2023-04-17T05:41:12.096Z,15.03
2023-04-17T05:42:34.910Z,14.67
2023-04-17T05:43:56.951Z,14.23
2023-04-17T05:45:19.149Z,15.93
2023-04-17T05:46:41.226Z,15.93
2023-04-17T05:48:04.724Z,15.70
2023-04-17T05:49:27.060Z,15.63
2023-04-17T05:50:49.159Z,16.67
2023-04-17T05:52:11.473Z,16.27
2023-04-17T05:53:33.690Z,14.10
2023-04-17T05:54:56.554Z,15.77
2023-04-17T05:56:18.644Z,14.50
2023-04-17T05:57:40.747Z,16.10
2023-04-17T05:59:02.763Z,15.30
2023-04-17T06:00:25.084Z,15.07
2023-04-17T06:01:47.226Z,14.57
2023-04-17T06:03:09.543Z,16.27
2023-04-17T06:04:32.077Z,14.07
2023-04-17T06:05:54.340Z,16.00
2023-04-17T06:07:16.434Z,14.57
2023-04-17T06:08:38.533Z,13.70
2023-04-17T06:10:01.648Z,14.17
2023-04-17T06:11:24.268Z,14.63
2023-04-17T06:12:46.590Z,14.93
2023-04-17T06:14:08.727Z,14.97
2023-04-17T06:15:30.857Z,14.50
2023-04-17T06:16:52.948Z,13.93
2023-04-17T06:18:16.117Z,13.83
2023-04-17T06:19:38.667Z,14.73
2023-04-17T06:21:01.177Z,13.73
2023-04-17T06:22:23.218Z,15.77
2023-04-17T06:23:45.483Z,16.17
2023-04-17T06:25:08.155Z,15.47
2023-04-17T06:26:30.188Z,17.10
2023-04-17T06:27:52.270Z,15.57
2023-04-17T06:29:15.509Z,16.17
2023-04-17T06:30:38.205Z,14.70
2023-04-17T06:32:00.335Z,14.60
2023-04-17T06:33:23.580Z,15.77
2023-04-17T06:36:14.558Z,16.17
2023-04-17T06:37:36.593Z,18.57
2023-04-17T06:38:58.631Z,18.77
2023-04-17T06:40:20.821Z,18.37
2023-04-17T06:41:42.880Z,17.63
2023-04-17T06:43:04.959Z,17.30
2023-04-17T06:44:27.079Z,18.80
2023-04-17T06:45:49.210Z,19.50
2023-04-17T06:47:11.321Z,18.77
2023-04-17T06:48:33.317Z,18.23
2023-04-17T06:49:55.409Z,18.40
2023-04-17T06:51:20.682Z,18.00
2023-04-17T06:52:43.103Z,18.93
2023-04-17T06:54:05.296Z,17.80
2023-04-17T06:55:27.656Z,18.20
2023-04-17T06:56:49.693Z,16.77
2023-04-17T06:58:11.808Z,19.90
2023-04-17T06:59:34.226Z,17.60
2023-04-17T07:00:56.699Z,18.20
2023-04-17T07:02:18.900Z,17.93
2023-04-17T07:03:43.618Z,18.50
2023-04-17T07:05:07.127Z,17.43
2023-04-17T07:06:29.363Z,18.93
2023-04-17T07:07:51.639Z,18.03
2023-04-17T07:09:13.816Z,18.40
2023-04-17T07:10:36.150Z,18.80
2023-04-17T07:11:58.219Z,19.03
2023-04-17T07:13:20.408Z,16.80
2023-04-17T07:14:42.745Z,17.27
2023-04-17T07:16:06.159Z,17.57
2023-04-17T07:17:28.587Z,16.23
2023-04-17T07:18:51.973Z,17.50
2023-04-17T07:20:14.143Z,16.60
2023-04-17T07:21:36.560Z,17.77
2023-04-17T07:22:58.673Z,16.07
2023-04-17T07:24:21.143Z,16.83
2023-04-17T07:25:43.314Z,15.67
2023-04-17T07:27:06.746Z,15.40
2023-04-17T07:28:28.803Z,15.53
2023-04-17T07:29:54.737Z,16.40
2023-04-17T07:31:17.042Z,15.10
2023-04-17T07:32:39.136Z,15.67
2023-04-17T07:34:01.229Z,15.80
2023-04-17T07:35:23.636Z,16.20
2023-04-17T07:36:54.550Z,15.07
2023-04-17T07:38:16.969Z,15.80
2023-04-17T07:39:39.043Z,15.93
2023-04-17T07:41:01.129Z,16.17
2023-04-17T07:42:23.185Z,16.23
2023-04-17T07:43:45.287Z,15.20
2023-04-17T07:45:07.956Z,15.57
2023-04-17T07:46:30.170Z,16.63
2023-04-17T07:47:53.121Z,15.10
2023-04-17T07:49:15.711Z,15.70
2023-04-17T07:50:37.965Z,15.93
2023-04-17T07:52:00.190Z,14.50
2023-04-17T07:53:25.473Z,15.47
2023-04-17T07:54:47.639Z,15.80
2023-04-17T07:56:11.639Z,16.23
2023-04-17T07:57:35.900Z,15.00
2023-04-17T07:58:58.343Z,16.90
2023-04-17T08:00:21.417Z,15.80
2023-04-17T08:01:43.901Z,15.70
2023-04-17T08:03:06.265Z,14.83
2023-04-17T08:04:28.717Z,14.77
2023-04-17T08:05:54.173Z,15.43
2023-04-17T08:07:18.273Z,14.23
2023-04-17T08:08:40.694Z,14.60
2023-04-17T08:10:03.845Z,14.97
2023-04-17T08:11:26.092Z,13.77
2023-04-17T08:12:48.983Z,13.80
2023-04-17T08:14:11.858Z,13.83
2023-04-17T08:15:34.299Z,13.20
2023-04-17T08:16:56.488Z,13.87
2023-04-17T08:18:18.640Z,13.70
2023-04-17T08:19:40.694Z,13.50
2023-04-17T08:21:04.017Z,13.00
2023-04-17T08:22:28.608Z,14.70
2023-04-17T08:23:50.961Z,14.10
2023-04-17T08:25:13.907Z,13.40
2023-04-17T08:26:35.939Z,12.90
2023-04-17T08:27:57.993Z,13.33
2023-04-17T08:29:20.019Z,13.80
2023-04-17T08:30:42.277Z,14.00
2023-04-17T08:32:13.112Z,12.50
2023-04-17T08:33:36.349Z,14.27
2023-04-17T08:34:58.660Z,12.40
2023-04-17T08:36:20.990Z,13.27
2023-04-17T08:37:46.968Z,12.70
2023-04-17T08:39:11.192Z,11.30
2023-04-17T08:40:33.650Z,11.97
2023-04-17T08:42:01.068Z,11.67
2023-04-17T08:43:26.037Z,12.70
2023-04-17T08:44:48.304Z,11.73
2023-04-17T08:46:10.921Z,11.70
2023-04-17T08:47:38.448Z,11.13
2023-04-17T08:49:02.979Z,12.63
2023-04-17T08:50:25.222Z,10.87
2023-04-17T08:51:47.297Z,11.93
2023-04-17T08:53:09.352Z,10.60
2023-04-17T08:54:36.454Z,10.70
2023-04-17T08:56:07.522Z,10.43
2023-04-17T08:57:30.870Z,10.13
2023-04-17T08:58:52.996Z,10.17
2023-04-17T09:00:23.489Z,9.10
2023-04-17T09:02:02.543Z,9.83
2023-04-17T09:03:24.914Z,10.70
2023-04-17T09:04:48.376Z,9.53
2023-04-17T09:06:11.352Z,8.83
2023-04-17T09:07:33.503Z,8.90
2023-04-17T09:09:00.299Z,9.07
2023-04-17T09:10:35.687Z,9.30
2023-04-17T09:12:11.138Z,8.73
2023-04-17T09:13:40.164Z,8.87
2023-04-17T09:15:16.555Z,8.33
2023-04-17T09:16:54.395Z,8.40
2023-04-17T09:18:32.440Z,9.33
2023-04-17T09:20:11.998Z,8.60
2023-04-17T09:21:34.130Z,9.37
2023-04-17T09:23:01.423Z,9.87
2023-04-17T09:24:34.384Z,7.93
2023-04-17T09:26:09.662Z,6.63
2023-04-17T09:27:31.941Z,7.67
2023-04-17T09:29:12.124Z,6.97
2023-04-17T09:30:38.061Z,8.23
2023-04-17T09:32:14.545Z,7.90
2023-04-17T09:33:55.122Z,7.50
2023-04-17T09:35:27.682Z,6.93
2023-04-17T09:36:54.326Z,7.33
2023-04-17T09:38:16.769Z,6.60
2023-04-17T09:39:39.945Z,6.70
2023-04-17T09:41:02.128Z,7.70
2023-04-17T09:42:24.472Z,7.43
2023-04-17T09:43:46.984Z,7.10
2023-04-17T09:45:22.278Z,6.37
2023-04-17T09:46:47.649Z,6.87
2023-04-17T09:48:11.960Z,7.13
2023-04-17T09:49:39.786Z,6.93
2023-04-17T09:51:02.301Z,6.10
2023-04-17T09:52:24.677Z,6.23
2023-04-17T09:53:46.869Z,6.40
2023-04-17T09:55:10.497Z,6.20
2023-04-17T09:56:35.481Z,7.63
2023-04-17T09:57:59.380Z,7.03
2023-04-17T09:59:23.836Z,7.20
2023-04-17T10:00:46.268Z,7.33
2023-04-17T10:02:09.724Z,6.50
2023-04-17T10:03:35.916Z,5.93
2023-04-17T10:05:00.191Z,6.80
2023-04-17T10:06:22.289Z,6.83
2023-04-17T10:07:44.778Z,7.00
2023-04-17T10:09:07.888Z,6.70
2023-04-17T10:10:33.666Z,6.83
2023-04-17T10:11:56.946Z,6.80
2023-04-17T10:13:21.120Z,7.13
2023-04-17T10:14:49.686Z,7.20
2023-04-17T10:16:11.827Z,6.43
2023-04-17T10:17:36.727Z,6.90
2023-04-17T10:19:23.848Z,6.60
2023-04-17T10:20:48.468Z,6.90
2023-04-17T10:22:18.012Z,6.10
2023-04-17T10:23:40.932Z,6.47
2023-04-17T10:25:12.579Z,6.53
2023-04-17T10:26:35.010Z,6.90
2023-04-17T10:28:01.326Z,7.40
2023-04-17T10:29:55.521Z,6.37
2023-04-17T10:31:18.041Z,6.43
2023-04-17T10:32:43.212Z,7.27
2023-04-17T10:34:05.248Z,7.07
2023-04-17T10:35:27.294Z,5.93
2023-04-17T10:36:49.629Z,6.80
2023-04-17T10:38:11.755Z,6.53
2023-04-17T10:39:56.613Z,6.83
2023-04-17T10:41:20.010Z,6.67
2023-04-17T10:42:42.294Z,6.73
2023-04-17T10:44:06.725Z,7.10
2023-04-17T10:46:05.450Z,7.07
2023-04-17T10:47:35.302Z,6.57
2023-04-17T10:48:57.471Z,7.00
2023-04-17T10:50:28.342Z,6.73
2023-04-17T10:51:52.203Z,6.53
2023-04-17T10:53:40.730Z,7.77
2023-04-17T10:55:03.607Z,7.10
2023-04-17T10:56:40.612Z,6.80
2023-04-17T10:58:12.331Z,7.20
2023-04-17T10:59:34.349Z,7.80
2023-04-17T11:00:57.285Z,7.60
2023-04-17T11:02:34.002Z,8.17
2023-04-17T11:03:56.912Z,7.57
2023-04-17T11:05:20.218Z,8.03
2023-04-17T11:06:44.182Z,7.60
2023-04-17T11:08:06.676Z,7.33
2023-04-17T11:09:29.585Z,8.57
2023-04-17T11:10:57.619Z,8.33
2023-04-17T11:12:19.692Z,8.43
2023-04-17T11:13:46.522Z,7.70
2023-04-17T11:15:09.091Z,7.10
2023-04-17T11:16:31.513Z,6.93
2023-04-17T11:17:54.485Z,7.13
2023-04-17T11:19:23.859Z,8.50
2023-04-17T11:20:46.121Z,7.87
2023-04-17T11:22:11.393Z,8.23
2023-04-17T11:23:33.984Z,7.83
2023-04-17T11:24:56.099Z,7.53
2023-04-17T11:26:19.520Z,7.47
2023-04-17T11:27:41.546Z,7.70
2023-04-17T11:29:13.370Z,7.63
2023-04-17T11:30:38.109Z,8.40
2023-04-17T11:32:01.135Z,8.03
2023-04-17T11:33:23.296Z,7.77
2023-04-17T11:34:45.461Z,7.93
2023-04-17T11:36:07.968Z,7.03
2023-04-17T11:37:30.034Z,6.87
2023-04-17T11:38:54.998Z,6.30
2023-04-17T11:40:22.710Z,6.80
2023-04-17T11:41:45.501Z,7.03
2023-04-17T11:43:08.256Z,6.10
2023-04-17T11:44:30.557Z,8.30
2023-04-17T11:45:58.099Z,7.40
2023-04-17T11:47:20.191Z,6.70
2023-04-17T11:48:42.393Z,6.70
2023-04-17T11:50:04.749Z,7.33
2023-04-17T11:51:26.790Z,7.10
2023-04-17T11:52:48.840Z,6.60
2023-04-17T11:54:29.731Z,6.83
2023-04-17T11:56:15.166Z,8.50
2023-04-17T11:57:43.518Z,7.40
2023-04-17T11:59:06.081Z,7.10
2023-04-17T12:00:32.155Z,8.13
2023-04-17T12:01:54.284Z,6.83
2023-04-17T12:03:45.314Z,7.60
2023-04-17T12:05:15.479Z,7.40
2023-04-17T12:06:38.172Z,8.03
2023-04-17T12:08:04.575Z,7.80
2023-04-17T12:09:31.554Z,8.20
2023-04-17T12:10:53.834Z,7.20
2023-04-17T12:12:16.187Z,8.00
2023-04-17T12:13:38.193Z,8.73
2023-04-17T12:15:00.963Z,7.80
2023-04-17T12:16:27.638Z,9.00
2023-04-17T12:17:49.865Z,8.67
2023-04-17T12:19:13.180Z,7.73
2023-04-17T12:20:36.427Z,7.73
2023-04-17T12:21:59.304Z,8.10
2023-04-17T12:23:21.394Z,7.27
2023-04-17T12:24:43.553Z,8.47
2023-04-17T12:26:06.023Z,7.57
2023-04-17T12:27:28.128Z,8.40
2023-04-17T12:28:50.899Z,7.80
2023-04-17T12:30:13.866Z,8.47
2023-04-17T12:31:35.958Z,7.40
2023-04-17T12:32:58.443Z,7.20
2023-04-17T12:34:20.594Z,8.47
2023-04-17T12:35:42.651Z,7.20
2023-04-17T12:37:04.697Z,7.57
2023-04-17T12:38:26.884Z,8.30
2023-04-17T12:39:48.931Z,7.40
2023-04-17T12:41:11.033Z,7.23
2023-04-17T12:42:39.454Z,7.00
2023-04-17T12:44:11.036Z,7.90
2023-04-17T12:45:33.614Z,7.80
2023-04-17T12:46:56.183Z,8.80
2023-04-17T12:48:18.320Z,7.97
2023-04-17T12:49:40.719Z,8.40
2023-04-17T12:51:02.857Z,8.40
2023-04-17T12:52:24.997Z,8.60
2023-04-17T12:53:47.741Z,9.03
2023-04-17T12:55:10.356Z,8.83
2023-04-17T12:56:32.816Z,9.97
2023-04-17T12:57:55.149Z,10.23
2023-04-17T12:59:17.248Z,10.03
2023-04-17T13:00:43.703Z,10.27
2023-04-17T13:02:06.662Z,10.70
2023-04-17T13:03:28.855Z,11.50
2023-04-17T13:04:53.490Z,10.77
2023-04-17T13:06:16.797Z,11.73
2023-04-17T13:07:38.857Z,11.67
2023-04-17T13:09:01.095Z,11.70
2023-04-17T13:10:23.292Z,13.47
2023-04-17T13:11:45.520Z,12.93
2023-04-17T13:13:08.181Z,13.07
2023-04-17T13:14:30.487Z,12.30
2023-04-17T13:15:52.876Z,12.17
2023-04-17T13:17:17.151Z,14.97
2023-04-17T13:18:39.682Z,13.30
2023-04-17T13:20:01.720Z,14.23
2023-04-17T13:21:23.866Z,12.63
2023-04-17T13:22:46.164Z,13.50
2023-04-17T13:24:14.304Z,13.47
2023-04-17T13:25:37.060Z,13.97
2023-04-17T13:26:59.402Z,14.03
2023-04-17T13:28:21.481Z,14.70
2023-04-17T13:29:43.643Z,12.80
2023-04-17T13:31:05.743Z,14.30
2023-04-17T13:32:27.840Z,13.70
2023-04-17T13:33:50.495Z,14.40
2023-04-17T13:35:13.453Z,14.90
2023-04-17T13:36:35.548Z,14.57
2023-04-17T13:38:00.888Z,13.83
2023-04-17T13:39:23.049Z,15.07
2023-04-17T13:40:45.182Z,15.23
2023-04-17T13:42:07.954Z,16.03
2023-04-17T13:43:30.079Z,14.37
2023-04-17T13:44:52.103Z,15.80
2023-04-17T13:46:16.249Z,15.37
2023-04-17T13:47:38.512Z,15.00
2023-04-17T13:49:00.713Z,15.27
2023-04-17T13:50:22.886Z,14.73
2023-04-17T13:51:44.977Z,15.90
2023-04-17T13:53:08.458Z,16.20
2023-04-17T13:54:32.036Z,15.37
2023-04-17T13:55:54.082Z,16.13
2023-04-17T13:57:18.434Z,15.80
2023-04-17T13:58:41.608Z,15.27
2023-04-17T14:00:04.060Z,14.90
2023-04-17T14:01:26.298Z,15.67
2023-04-17T14:02:48.547Z,15.20
2023-04-17T14:04:10.974Z,15.43
2023-04-17T14:05:33.510Z,14.83
2023-04-17T14:06:55.760Z,15.40
2023-04-17T14:08:17.998Z,15.17
2023-04-17T14:09:40.294Z,15.27
2023-04-17T14:11:02.602Z,15.50
2023-04-17T14:12:24.846Z,15.33
2023-04-17T14:13:46.953Z,14.43
2023-04-17T14:15:09.694Z,15.33
2023-04-17T14:16:32.255Z,14.33
2023-04-17T14:17:54.446Z,14.03
2023-04-17T14:19:17.703Z,15.40
2023-04-17T14:20:40.476Z,13.80
2023-04-17T14:22:02.551Z,13.33
2023-04-17T14:23:24.621Z,14.83
2023-04-17T14:24:46.675Z,13.00
2023-04-17T14:26:09.196Z,12.63
2023-04-17T14:27:31.420Z,12.80
2023-04-17T14:28:53.505Z,12.27
2023-04-17T14:30:15.689Z,12.87
2023-04-17T14:31:37.856Z,12.50
2023-04-17T14:33:00.027Z,13.17
2023-04-17T14:34:22.271Z,12.33
2023-04-17T14:35:44.399Z,12.40
2023-04-17T14:37:06.517Z,12.33
2023-04-17T14:38:28.712Z,12.70
2023-04-17T14:39:50.771Z,12.27
2023-04-17T14:41:12.958Z,11.47
2023-04-17T14:42:43.760Z,11.93
2023-04-17T14:44:13.533Z,12.73
2023-04-17T14:45:36.716Z,12.90
2023-04-17T14:46:58.958Z,12.53
2023-04-17T14:48:21.168Z,12.00
2023-04-17T14:49:43.379Z,11.30
2023-04-17T14:51:05.935Z,12.73
2023-04-17T14:52:28.194Z,10.90
2023-04-17T14:53:52.907Z,11.00
2023-04-17T14:55:15.527Z,11.33
2023-04-17T14:56:37.673Z,12.27
2023-04-17T14:57:59.833Z,13.03
2023-04-17T14:59:21.949Z,11.73
2023-04-17T15:00:44.252Z,11.97
2023-04-17T15:02:09.232Z,11.20
2023-04-17T15:03:32.270Z,11.83
2023-04-17T15:04:55.336Z,10.83
2023-04-17T15:06:18.938Z,11.50
2023-04-17T15:07:41.073Z,11.77
2023-04-17T15:09:03.193Z,11.70
2023-04-17T15:10:26.586Z,13.00
2023-04-17T15:11:48.859Z,12.07
2023-04-17T15:13:11.035Z,13.63
2023-04-17T15:14:33.133Z,11.93
2023-04-17T15:15:55.584Z,12.33
2023-04-17T15:17:17.725Z,12.30
2023-04-17T15:18:39.874Z,12.40
2023-04-17T15:20:02.089Z,12.93
2023-04-17T15:21:24.225Z,13.70
2023-04-17T15:22:52.301Z,12.87
2023-04-17T15:24:14.449Z,14.87
2023-04-17T15:25:37.021Z,14.60
2023-04-17T15:26:59.161Z,13.87
2023-04-17T15:28:21.705Z,15.00
2023-04-17T15:29:44.611Z,14.70
2023-04-17T15:31:07.066Z,14.30
2023-04-17T15:32:30.157Z,14.20
2023-04-17T15:33:52.304Z,15.93
2023-04-17T15:35:14.345Z,14.27
2023-04-17T15:36:36.392Z,14.50
2023-04-17T15:37:58.511Z,14.10
2023-04-17T15:39:20.574Z,15.03
2023-04-17T15:40:42.621Z,14.80
2023-04-17T15:42:08.534Z,13.87
2023-04-17T15:43:31.027Z,12.73
2023-04-17T15:44:55.339Z,13.17
2023-04-17T15:46:17.575Z,14.13
2023-04-17T15:47:39.901Z,13.57
2023-04-17T15:49:08.711Z,12.57
2023-04-17T15:50:31.422Z,14.03
2023-04-17T15:51:53.868Z,13.67
2023-04-17T15:53:16.030Z,13.20
2023-04-17T15:54:38.065Z,14.73
2023-04-17T15:56:00.616Z,14.33
2023-04-17T15:57:23.332Z,13.13
2023-04-17T15:58:45.472Z,13.10
2023-04-17T16:00:08.148Z,14.10
2023-04-17T16:01:30.462Z,14.00
2023-04-17T16:02:52.927Z,14.80
2023-04-17T16:04:15.460Z,14.20
2023-04-17T16:05:37.782Z,14.07
2023-04-17T16:06:59.908Z,13.80
2023-04-17T16:08:22.011Z,14.67
2023-04-17T16:09:47.945Z,14.30
2023-04-17T16:11:10.834Z,14.90
2023-04-17T16:12:32.883Z,13.53
2023-04-17T16:13:54.943Z,14.63
2023-04-17T16:15:17.785Z,15.80
2023-04-17T16:16:39.859Z,14.40
2023-04-17T16:18:01.989Z,13.67
2023-04-17T16:19:24.129Z,16.23
2023-04-17T16:20:46.413Z,14.87
2023-04-17T16:22:08.456Z,14.70
2023-04-17T16:23:30.558Z,14.70
2023-04-17T16:24:52.581Z,15.00
2023-04-17T16:26:15.192Z,13.50
2023-04-17T16:27:37.666Z,14.60
2023-04-17T16:28:59.852Z,13.87
2023-04-17T16:30:22.031Z,13.60
2023-04-17T16:31:44.212Z,13.00
2023-04-17T16:33:06.348Z,13.63
2023-04-17T16:34:28.614Z,14.10
2023-04-17T16:35:50.749Z,13.60
2023-04-17T16:37:14.783Z,14.53
2023-04-17T16:38:38.646Z,13.17
2023-04-17T16:40:04.658Z,14.20
2023-04-17T16:41:26.752Z,12.63
2023-04-17T16:42:48.849Z,13.20
2023-04-17T16:44:11.151Z,14.00
2023-04-17T16:45:33.374Z,13.50
2023-04-17T16:47:12.167Z,13.33
2023-04-17T16:48:35.860Z,14.43
2023-04-17T16:49:58.197Z,13.17
2023-04-17T16:51:20.771Z,14.50
2023-04-17T16:52:42.921Z,13.43
2023-04-17T16:54:05.143Z,12.57
2023-04-17T16:55:27.225Z,12.80
2023-04-17T16:56:49.353Z,15.03
2023-04-17T16:58:11.498Z,13.97
2023-04-17T16:59:33.536Z,13.27
2023-04-17T17:00:56.157Z,13.30
2023-04-17T17:02:18.265Z,14.90
2023-04-17T17:03:43.092Z,14.17
2023-04-17T17:05:06.107Z,14.30
2023-04-17T17:06:28.476Z,13.23
2023-04-17T17:07:50.613Z,15.03
2023-04-17T17:09:12.825Z,13.50
2023-04-17T17:10:35.238Z,15.27
2023-04-17T17:11:57.395Z,16.20
2023-04-17T17:13:19.448Z,15.07
2023-04-17T17:14:41.552Z,13.43
2023-04-17T17:16:03.669Z,14.70
2023-04-17T17:17:25.795Z,16.37
2023-04-17T17:18:48.580Z,15.30
2023-04-17T17:20:11.458Z,14.50
2023-04-17T17:21:33.552Z,15.47
2023-04-17T17:22:55.757Z,16.00
2023-04-17T17:24:17.821Z,16.00
2023-04-17T17:25:39.895Z,15.00
2023-04-17T17:27:02.774Z,16.23
2023-04-17T17:28:24.981Z,14.93
2023-04-17T17:29:47.060Z,16.03
2023-04-17T17:31:09.144Z,14.70
2023-04-17T17:32:31.231Z,16.27
2023-04-17T17:33:54.972Z,16.23
2023-04-17T17:35:17.114Z,16.03
2023-04-17T17:36:39.169Z,15.07
2023-04-17T17:38:01.444Z,18.03
2023-04-17T17:39:23.564Z,15.33
2023-04-17T17:40:45.678Z,14.50
2023-04-17T17:42:09.459Z,14.60
2023-04-17T17:43:31.575Z,15.50
2023-04-17T17:44:53.810Z,16.33
2023-04-17T17:46:16.088Z,15.63
2023-04-17T17:47:39.819Z,15.43
2023-04-17T17:49:01.934Z,15.37
2023-04-17T17:50:24.070Z,15.50
2023-04-17T17:51:46.182Z,16.37
2023-04-17T17:53:08.759Z,14.90
2023-04-17T17:54:36.223Z,15.73
2023-04-17T17:55:58.360Z,14.20
2023-04-17T17:57:20.544Z,15.33
2023-04-17T17:58:42.665Z,14.43
2023-04-17T18:00:05.385Z,15.33
2023-04-17T18:01:27.551Z,15.40
2023-04-17T18:02:49.804Z,15.63